Aérodrome :
LOGIN :

S'inscrire | Disclaimer

   EN    FR    IT 

 










Légende :    VFR   VFR Marginal   IFR   IFR Intensif   IFR Très Intensif
Visi : 
Plafond : 
>= 8 km
>= 3000ft
5 à 8 km
1000 à 3000 ft
1500m à 5 km
500 à 1000 ft
800 à 1500m
200 à 500 ft
< 800m
< 200 ft
Symboles :   Orages  Brouillard  Fortes neiges  Fortes précipitations  Vent > 20 kt
SIGMETs :   Divers  Orages  Givrage  Turbulence  Onde Orograph.  Cendres Volcan.






- Altitude de l'aérodrome : 3125 ft
- Code IATA : ESB


LTAC - Ankara Esenboga

DERNIER METAR :
  • 300220Z 33003KT 9999 SCT040 SCT100 04/04 Q1017 NOSIG

METARs EXPIRÉS :
  • 300150Z 07003KT 020V090 9999 SCT040 SCT100 06/04 Q1017 NOSIG RMK RWY21L 12003KT RWY03L VRB01KT RWY21R VRB02KT
  • 300120Z VRB02KT 9999 FEW040 SCT100 05/04 Q1017 NOSIG RMK RWY21L VRB01KT RWY03L 00000KT RWY21R VRB01KT
  • 300050Z 04003KT 9999 FEW040 SCT100 05/04 Q1017 NOSIG RMK RWY21L 06002KT RWY03L 04002KT RWY21R 07003KT
  • 300020Z 31004KT 9999 FEW040 SCT100 05/04 Q1017 NOSIG RMK RWY21L 30004KT RWY03L 31003KT RWY21R 32004KT
  • 292350Z VRB02KT 9999 FEW040 SCT100 06/04 Q1017 NOSIG RMK RWY21L 10004KT RWY03L VRB02KT RWY21R VRB02KT

TAF TAF LTAC
Valide du 30 à 00h jusqu'au 31 à 00h UTC


292240Z 3000/3024 VRB02KT 9999 SCT040 SCT100
BECMG 3006/3008 24012KT
TEMPO 3011/3015 30015G25KT -TSRA FEW025CB BKN030
BECMG 3015/3018 VRB02KT CAVOK



MET'MAP, la Météo Aéronautique d'un coup d'oeil ! - Copyright ORBIFLY Décembre 2007 - Disclaimer

ORBIFLY MET'MAP TEAM :

Programmation & Développement : Alexandra Zaïnal
Sur une idée originale de : Baudouin d'Aumeries
Assistance à la programmation : Marc-Olivier Méhu
Soutien technique & logistique : Manuel Goepfert

Contact : metmap@orbifly.com




SOURCES & CREDITS :

   NOAA